createdAt,value
2019-01-31T00:00:47.850Z,98505.92
2019-01-31T00:03:56.252Z,98497.75
2019-01-31T00:06:37.152Z,98498.47
2019-01-31T00:09:44.190Z,98494.12
2019-01-31T00:12:51.239Z,98493.68
2019-01-31T00:15:59.581Z,98488.27
2019-01-31T00:19:06.623Z,98488.64
2019-01-31T00:22:13.661Z,98490.06
2019-01-31T00:25:22.006Z,98489.23
2019-01-31T00:28:30.402Z,98488.69
2019-01-31T00:31:37.527Z,98492.59
2019-01-31T00:34:44.552Z,98493.73
2019-01-31T00:37:51.591Z,98493.39
2019-01-31T00:40:58.608Z,98483.61
2019-01-31T00:44:05.653Z,98491.09
2019-01-31T00:47:14.020Z,98486.34
2019-01-31T00:50:22.389Z,98484.09
2019-01-31T00:53:30.731Z,98494.98
2019-01-31T00:56:39.221Z,98479.09
2019-01-31T00:59:46.180Z,98478.95
2019-01-31T01:02:54.603Z,98486.75
2019-01-31T01:06:02.953Z,98486.13
2019-01-31T01:09:11.415Z,98481.75
2019-01-31T01:12:19.811Z,98482.41
2019-01-31T01:15:28.178Z,98478.89
2019-01-31T01:18:35.192Z,98486.63
2019-01-31T01:21:43.620Z,98484.22
2019-01-31T01:24:50.630Z,98480.42
2019-01-31T01:27:59.005Z,98473.92
2019-01-31T01:31:07.342Z,98477.00
2019-01-31T01:34:15.705Z,98482.61
2019-01-31T01:37:24.038Z,98482.00
2019-01-31T01:40:31.074Z,98475.66
2019-01-31T01:43:39.417Z,98479.41
2019-01-31T01:46:47.835Z,98488.23
2019-01-31T01:49:54.848Z,98484.64
2019-01-31T01:53:01.889Z,98491.98
2019-01-31T01:56:08.923Z,98489.61
2019-01-31T01:59:15.960Z,98495.42
2019-01-31T02:02:24.298Z,98484.20
2019-01-31T02:05:32.674Z,98493.33
2019-01-31T02:08:41.012Z,98489.91
2019-01-31T02:11:49.378Z,98485.70
2019-01-31T02:14:57.719Z,98480.95
2019-01-31T02:18:06.149Z,98476.94
2019-01-31T02:21:14.493Z,98462.16
2019-01-31T02:24:21.618Z,98456.98
2019-01-31T02:27:28.637Z,98446.34
2019-01-31T02:30:37.053Z,98446.93
2019-01-31T02:33:44.065Z,98441.20
2019-01-31T02:36:52.435Z,98438.66
2019-01-31T02:40:00.833Z,98438.70
2019-01-31T02:43:09.211Z,98428.25
2019-01-31T02:46:16.222Z,98408.28
2019-01-31T02:49:24.655Z,98426.38
2019-01-31T02:52:31.670Z,98416.72
2019-01-31T02:55:40.046Z,98409.77
2019-01-31T02:58:48.461Z,98400.20
2019-01-31T03:01:56.837Z,98398.75
2019-01-31T03:05:05.186Z,98390.72
2019-01-31T03:08:13.559Z,98385.05
2019-01-31T03:11:21.982Z,98385.20
2019-01-31T03:14:30.361Z,98381.86
2019-01-31T03:17:38.759Z,98383.39
2019-01-31T03:20:47.185Z,98379.22
2019-01-31T03:23:55.551Z,98384.25
2019-01-31T03:27:02.603Z,98374.84
2019-01-31T03:30:09.626Z,98367.11
2019-01-31T03:33:18.047Z,98372.46
2019-01-31T03:36:26.400Z,98357.20
2019-01-31T03:39:33.468Z,98362.80
2019-01-31T03:42:40.484Z,98361.05
2019-01-31T03:45:47.537Z,98362.52
2019-01-31T03:48:54.576Z,98361.67
2019-01-31T03:52:01.636Z,98349.03
2019-01-31T03:55:09.977Z,98345.16
2019-01-31T03:58:17.043Z,98346.66
2019-01-31T04:01:25.379Z,98346.69
2019-01-31T04:04:33.772Z,98336.88
2019-01-31T04:07:21.434Z,98344.84
2019-01-31T04:09:49.886Z,98351.19
2019-01-31T04:12:18.326Z,98348.53
2019-01-31T04:14:46.757Z,98348.64
2019-01-31T04:17:15.216Z,98344.91
2019-01-31T04:19:43.642Z,98351.12
2019-01-31T04:22:12.093Z,98344.94
2019-01-31T04:24:40.533Z,98347.21
2019-01-31T04:27:28.176Z,98350.66
2019-01-31T04:29:56.708Z,98347.75
2019-01-31T04:32:25.137Z,98347.27
2019-01-31T04:34:53.567Z,98341.79
2019-01-31T04:37:22.049Z,98346.45
2019-01-31T04:39:50.477Z,98341.46
2019-01-31T04:45:46.341Z,98341.53
2019-01-31T04:48:14.763Z,98340.70
2019-01-31T04:51:02.460Z,98338.66
2019-01-31T04:53:30.878Z,98336.88
2019-01-31T04:55:59.305Z,98336.23
2019-01-31T04:58:27.756Z,98336.59
2019-01-31T05:01:15.497Z,98337.09
2019-01-31T05:04:03.143Z,98336.95
2019-01-31T05:06:50.884Z,98339.43
2019-01-31T05:09:19.337Z,98339.56
2019-01-31T05:11:47.763Z,98330.35
2019-01-31T05:14:16.183Z,98340.00
2019-01-31T05:16:44.660Z,98330.80
2019-01-31T05:19:13.083Z,98334.08
2019-01-31T05:22:00.724Z,98338.50
2019-01-31T05:24:48.339Z,98332.73
2019-01-31T05:27:16.830Z,98335.92
2019-01-31T05:29:45.242Z,98335.03
2019-01-31T05:32:13.660Z,98335.73
2019-01-31T05:37:15.760Z,98338.59
2019-01-31T05:39:44.217Z,98337.13
2019-01-31T05:42:12.639Z,98337.93
2019-01-31T05:44:41.059Z,98341.34
2019-01-31T05:47:09.478Z,98342.67
2019-01-31T05:49:37.931Z,98339.39
2019-01-31T05:52:25.680Z,98342.50
2019-01-31T05:55:13.459Z,98341.49
2019-01-31T05:57:41.888Z,98337.67
2019-01-31T06:05:39.435Z,98336.36
2019-01-31T06:08:07.909Z,98340.66
2019-01-31T06:10:36.353Z,98345.97
2019-01-31T06:13:24.064Z,98333.33
2019-01-31T06:15:52.495Z,98335.41
2019-01-31T06:18:20.924Z,98331.29
2019-01-31T06:20:49.371Z,98333.45
2019-01-31T06:23:17.803Z,98335.98
2019-01-31T06:25:46.224Z,98332.30
2019-01-31T06:31:07.676Z,98333.66
2019-01-31T06:36:10.418Z,98334.90
2019-01-31T06:38:38.846Z,98338.44
2019-01-31T06:43:41.868Z,98337.28
2019-01-31T06:46:10.324Z,98340.41
2019-01-31T06:48:38.746Z,98334.08
2019-01-31T06:51:07.176Z,98340.16
2019-01-31T06:53:35.634Z,98340.60
2019-01-31T06:59:14.567Z,98343.74
2019-01-31T07:01:42.300Z,98341.25
2019-01-31T07:04:11.180Z,98342.13
2019-01-31T07:06:40.987Z,98342.88
2019-01-31T07:09:49.337Z,98341.85
2019-01-31T07:12:17.788Z,98338.87
2019-01-31T07:14:46.216Z,98346.66
2019-01-31T07:17:14.711Z,98343.22
2019-01-31T07:19:43.263Z,98347.10
2019-01-31T07:24:59.292Z,98358.88
2019-01-31T07:27:27.724Z,98362.37
2019-01-31T07:29:56.170Z,98360.13
2019-01-31T07:32:24.661Z,98360.34
2019-01-31T07:34:53.071Z,98368.53
2019-01-31T07:37:40.842Z,98368.40
2019-01-31T07:40:49.193Z,98367.09
2019-01-31T07:43:17.652Z,98372.84
2019-01-31T07:46:05.407Z,98365.40
2019-01-31T07:51:07.793Z,98370.17
2019-01-31T07:56:10.496Z,98370.03
2019-01-31T07:58:38.924Z,98376.97
2019-01-31T08:01:26.697Z,98380.84
2019-01-31T08:04:02.255Z,98383.00
2019-01-31T08:06:25.292Z,98383.36
2019-01-31T08:09:12.878Z,98376.39
2019-01-31T08:11:52.068Z,98378.61
2019-01-31T08:14:11.524Z,98372.11
2019-01-31T08:16:59.313Z,98386.56
2019-01-31T08:19:27.794Z,98388.94
2019-01-31T08:21:56.200Z,98392.67
2019-01-31T08:24:24.659Z,98388.11
2019-01-31T08:26:55.828Z,98391.55
2019-01-31T08:29:23.293Z,98391.96
2019-01-31T08:31:51.815Z,98387.24
2019-01-31T08:34:20.243Z,98396.58
2019-01-31T08:36:48.663Z,98397.95
2019-01-31T08:39:17.112Z,98397.03
2019-01-31T08:41:45.530Z,98393.52
2019-01-31T08:44:13.951Z,98392.22
2019-01-31T08:46:42.399Z,98391.60
2019-01-31T08:49:10.817Z,98396.00
2019-01-31T08:51:39.239Z,98392.84
2019-01-31T08:54:26.878Z,98394.32
2019-01-31T08:56:55.365Z,98394.94
2019-01-31T08:59:23.790Z,98394.25
2019-01-31T09:02:12.580Z,98395.11
2019-01-31T09:05:01.029Z,98401.37
2019-01-31T09:07:48.615Z,98403.67
2019-01-31T09:10:56.952Z,98403.50
2019-01-31T09:14:05.328Z,98401.65
2019-01-31T09:16:52.945Z,98398.78
2019-01-31T09:19:40.585Z,98401.08
2019-01-31T09:22:48.926Z,98403.77
2019-01-31T09:25:57.314Z,98402.50
2019-01-31T09:29:05.657Z,98401.97
2019-01-31T09:32:12.699Z,98397.74
2019-01-31T09:35:19.709Z,98401.37
2019-01-31T09:38:26.868Z,98407.98
2019-01-31T09:41:35.261Z,98411.47
2019-01-31T09:44:42.303Z,98413.41
2019-01-31T09:47:49.310Z,98414.56
2019-01-31T09:50:57.688Z,98414.23
2019-01-31T09:54:04.699Z,98417.22
2019-01-31T09:57:13.134Z,98419.94
2019-01-31T10:00:27.154Z,98420.83
2019-01-31T10:03:30.290Z,98422.14
2019-01-31T10:06:37.298Z,98425.58
2019-01-31T10:09:44.351Z,98417.31
2019-01-31T10:12:52.812Z,98425.99
2019-01-31T10:15:59.902Z,98424.34
2019-01-31T10:19:08.317Z,98422.71
2019-01-31T10:22:15.481Z,98420.67
2019-01-31T10:25:23.791Z,98426.38
2019-01-31T10:28:31.132Z,98420.50
2019-01-31T10:31:38.146Z,98422.33
2019-01-31T10:34:45.183Z,98416.53
2019-01-31T10:37:52.194Z,98410.63
2019-01-31T10:40:59.550Z,98412.41
2019-01-31T10:44:07.894Z,98415.27
2019-01-31T10:47:15.013Z,98408.11
2019-01-31T10:50:23.355Z,98404.27
2019-01-31T10:53:31.801Z,98395.91
2019-01-31T10:56:40.133Z,98392.72
2019-01-31T10:59:47.177Z,98383.44
2019-01-31T11:02:54.228Z,98380.08
2019-01-31T11:06:01.263Z,98373.92
2019-01-31T11:09:09.599Z,98368.15
2019-01-31T11:12:16.643Z,98373.77
2019-01-31T11:15:23.652Z,98367.31
2019-01-31T11:18:32.041Z,98358.88
2019-01-31T11:21:39.052Z,98366.95
2019-01-31T11:24:46.121Z,98365.08
2019-01-31T11:27:54.530Z,98355.94
2019-01-31T11:31:02.901Z,98359.66
2019-01-31T11:34:11.240Z,98362.94
2019-01-31T11:37:19.662Z,98355.27
2019-01-31T11:40:26.671Z,98355.72
2019-01-31T11:43:33.788Z,98352.43
2019-01-31T11:46:40.872Z,98356.05
2019-01-31T11:49:49.906Z,98350.95
2019-01-31T11:52:58.042Z,98351.62
2019-01-31T11:56:06.553Z,98348.27
2019-01-31T11:59:14.939Z,98348.73
2019-01-31T12:04:57.612Z,98353.07
2019-01-31T12:07:45.387Z,98351.62
2019-01-31T12:10:53.725Z,98350.31
2019-01-31T12:16:15.527Z,98344.98
2019-01-31T12:18:43.982Z,98341.86
2019-01-31T12:21:12.499Z,98346.72
2019-01-31T12:29:29.135Z,98345.09
2019-01-31T12:31:57.731Z,98344.28
2019-01-31T12:34:26.149Z,98342.31
2019-01-31T12:36:54.570Z,98344.14
2019-01-31T12:40:03.032Z,98348.08
2019-01-31T12:42:50.690Z,98344.50
2019-01-31T12:45:59.096Z,98344.34
2019-01-31T12:48:27.510Z,98345.44
2019-01-31T12:50:56.003Z,98346.52
2019-01-31T12:53:24.517Z,98341.64
2019-01-31T12:55:52.939Z,98339.75
2019-01-31T12:58:21.363Z,98337.75
2019-01-31T13:04:04.232Z,98335.55
2019-01-31T13:06:32.669Z,98338.99
2019-01-31T13:09:20.211Z,98337.68
2019-01-31T13:12:07.859Z,98341.97
2019-01-31T13:14:55.602Z,98327.73
2019-01-31T13:20:37.821Z,98328.76
2019-01-31T13:23:46.228Z,98326.08
2019-01-31T13:26:14.647Z,98333.45
2019-01-31T13:28:43.066Z,98335.08
2019-01-31T13:31:11.510Z,98333.31
2019-01-31T13:33:39.928Z,98327.84
2019-01-31T13:44:29.842Z,98323.72
2019-01-31T13:46:58.298Z,98321.50
2019-01-31T13:49:46.054Z,98322.80
2019-01-31T13:52:33.715Z,98319.63
2019-01-31T13:55:02.202Z,98315.84
2019-01-31T13:57:49.903Z,98317.39
2019-01-31T14:00:58.239Z,98314.95
2019-01-31T14:03:26.693Z,98319.01
2019-01-31T14:05:55.117Z,98321.58
2019-01-31T14:08:23.605Z,98323.31
2019-01-31T14:13:26.138Z,98328.05
2019-01-31T14:16:14.120Z,98329.00
2019-01-31T14:18:42.905Z,98327.12
2019-01-31T14:21:11.334Z,98332.48
2019-01-31T14:23:40.138Z,98337.22
2019-01-31T14:26:08.624Z,98339.80
2019-01-31T14:28:37.321Z,98343.64
2019-01-31T14:31:06.089Z,98345.66
2019-01-31T14:33:34.792Z,98349.34
2019-01-31T14:36:03.575Z,98346.81
2019-01-31T14:38:32.386Z,98342.09
2019-01-31T14:41:00.809Z,98342.09
2019-01-31T14:43:29.326Z,98338.99
2019-01-31T14:45:58.120Z,98338.84
2019-01-31T14:48:26.900Z,98336.38
2019-01-31T14:50:55.688Z,98336.44
2019-01-31T14:53:24.580Z,98333.50
2019-01-31T14:55:55.417Z,98337.18
2019-01-31T14:58:42.538Z,98340.30
2019-01-31T15:01:10.996Z,98338.25
2019-01-31T15:03:39.440Z,98337.24
2019-01-31T15:08:41.890Z,98344.19
2019-01-31T15:13:44.275Z,98340.25
2019-01-31T15:16:12.695Z,98340.32
2019-01-31T15:18:41.144Z,98330.22
2019-01-31T15:21:09.561Z,98331.88
2019-01-31T15:23:37.982Z,98332.79
2019-01-31T15:26:06.463Z,98329.20
2019-01-31T15:28:34.883Z,98338.20
2019-01-31T15:31:03.378Z,98335.91
2019-01-31T15:36:24.717Z,98336.11
2019-01-31T15:39:12.360Z,98332.49
2019-01-31T15:42:20.727Z,98332.63
2019-01-31T15:47:42.202Z,98328.28
2019-01-31T15:50:50.978Z,98331.06
2019-01-31T15:53:22.107Z,98325.83
2019-01-31T15:55:49.753Z,98323.20
2019-01-31T15:58:18.207Z,98320.27
2019-01-31T16:01:26.542Z,98312.38
2019-01-31T16:06:28.890Z,98307.19
2019-01-31T16:09:16.666Z,98306.25
2019-01-31T16:14:54.942Z,98299.17
2019-01-31T16:17:21.878Z,98297.52
2019-01-31T16:19:50.297Z,98290.19
2019-01-31T16:22:37.952Z,98283.47
2019-01-31T16:25:47.881Z,98277.14
2019-01-31T16:28:16.454Z,98283.27
2019-01-31T16:34:12.250Z,98293.91
2019-01-31T16:37:20.593Z,98281.17
2019-01-31T16:42:23.092Z,98285.02
2019-01-31T16:44:51.530Z,98287.54
2019-01-31T16:47:19.951Z,98284.89
2019-01-31T16:50:07.659Z,98280.63
2019-01-31T16:52:55.398Z,98276.37
2019-01-31T16:56:03.767Z,98275.87
2019-01-31T16:58:32.267Z,98277.97
2019-01-31T17:01:20.109Z,98274.81
2019-01-31T17:03:48.531Z,98276.59
2019-01-31T17:06:17.027Z,98277.45
2019-01-31T17:08:45.483Z,98272.55
2019-01-31T17:11:33.150Z,98274.08
2019-01-31T17:16:35.998Z,98262.14
2019-01-31T17:21:59.587Z,98268.83
2019-01-31T17:24:28.012Z,98260.64
2019-01-31T17:26:56.435Z,98263.19
2019-01-31T17:29:24.892Z,98264.59
2019-01-31T17:31:53.317Z,98255.28
2019-01-31T17:40:04.164Z,98225.31
2019-01-31T17:42:32.643Z,98224.45
2019-01-31T17:45:01.051Z,98213.28
2019-01-31T17:47:29.478Z,98197.46
2019-01-31T17:52:32.286Z,98194.98
2019-01-31T17:55:19.980Z,98199.41
2019-01-31T17:58:07.681Z,98209.56
2019-01-31T18:06:44.653Z,98221.64
2019-01-31T18:11:47.499Z,98222.48
2019-01-31T18:14:15.927Z,98224.04
2019-01-31T18:19:17.920Z,98214.22
2019-01-31T18:21:46.344Z,98205.98
2019-01-31T18:24:14.807Z,98208.44
2019-01-31T18:26:43.234Z,98193.48
2019-01-31T18:29:11.703Z,98189.42
2019-01-31T18:31:40.161Z,98187.50
2019-01-31T18:34:08.608Z,98181.69
2019-01-31T18:36:37.055Z,98180.89
2019-01-31T18:39:45.537Z,98175.53
2019-01-31T18:42:13.959Z,98173.80
2019-01-31T18:44:43.777Z,98178.45
2019-01-31T18:47:12.586Z,98177.83
2019-01-31T18:49:41.031Z,98173.15
2019-01-31T18:58:37.799Z,98142.92
2019-01-31T19:01:46.185Z,98143.04
2019-01-31T19:04:14.776Z,98136.94
2019-01-31T19:06:43.203Z,98143.51
2019-01-31T19:12:26.062Z,98141.52
2019-01-31T19:15:13.816Z,98136.50
2019-01-31T19:18:06.045Z,98145.03
2019-01-31T19:21:11.919Z,98142.63
2019-01-31T19:26:53.281Z,98108.16
2019-01-31T19:29:41.196Z,98102.68
2019-01-31T19:32:09.803Z,98088.84
2019-01-31T19:34:57.499Z,98100.09
2019-01-31T19:37:46.125Z,98116.22
2019-01-31T19:40:53.455Z,98107.92
2019-01-31T19:43:41.099Z,98104.42
2019-01-31T19:46:16.504Z,98095.70
2019-01-31T19:49:20.778Z,98091.73
2019-01-31T19:52:08.607Z,98086.87
2019-01-31T19:54:56.280Z,98095.45
2019-01-31T19:59:58.576Z,98084.13
2019-01-31T20:02:46.419Z,98078.95
2019-01-31T20:05:15.512Z,98072.81
2019-01-31T20:11:19.639Z,98060.98
2019-01-31T20:14:08.573Z,98050.58
2019-01-31T20:16:56.265Z,98050.06
2019-01-31T20:26:07.807Z,98033.34
2019-01-31T20:28:36.278Z,98028.95
2019-01-31T20:31:44.711Z,98028.36
2019-01-31T20:34:32.360Z,98029.94
2019-01-31T20:37:00.927Z,98029.41
2019-01-31T20:39:48.588Z,98032.84
2019-01-31T20:42:17.162Z,98024.42
2019-01-31T20:44:45.700Z,98023.03
2019-01-31T20:47:15.788Z,98024.67
2019-01-31T20:52:38.065Z,98011.22
2019-01-31T20:55:46.564Z,98000.70
2019-01-31T20:58:34.349Z,97991.56
2019-01-31T21:01:22.168Z,97990.38
2019-01-31T21:04:12.298Z,97980.71
2019-01-31T21:09:34.348Z,97975.21
2019-01-31T21:12:22.224Z,97978.64
2019-01-31T21:15:12.855Z,97981.13
2019-01-31T21:17:59.720Z,97975.42
2019-01-31T21:21:08.098Z,97969.78
2019-01-31T21:26:49.443Z,97957.99
2019-01-31T21:29:37.237Z,97945.39
2019-01-31T21:32:24.978Z,97948.94
2019-01-31T21:34:53.478Z,97936.87
2019-01-31T21:37:41.132Z,97930.83
2019-01-31T21:40:49.679Z,97924.86
2019-01-31T21:43:18.103Z,97913.72
2019-01-31T21:46:06.685Z,97898.77
2019-01-31T21:48:35.139Z,97896.83
2019-01-31T21:51:03.724Z,97886.56
2019-01-31T21:53:51.498Z,97876.39
2019-01-31T21:56:19.919Z,97877.64
2019-01-31T22:02:01.112Z,97890.03
2019-01-31T22:04:49.011Z,97901.20
2019-01-31T22:07:36.616Z,97910.64
2019-01-31T22:10:45.080Z,97913.72
2019-01-31T22:13:13.522Z,97915.55
2019-01-31T22:21:30.643Z,97912.41
2019-01-31T22:23:59.089Z,97914.13
2019-01-31T22:26:46.756Z,97913.73
2019-01-31T22:29:15.208Z,97908.75
2019-01-31T22:31:43.652Z,97899.64
2019-01-31T22:34:12.072Z,97901.17
2019-01-31T22:36:59.651Z,97905.91
2019-01-31T22:39:28.076Z,97899.56
2019-01-31T22:41:56.502Z,97889.13
2019-01-31T22:44:24.949Z,97885.73
2019-01-31T22:47:12.561Z,97883.08
2019-01-31T22:52:33.919Z,97878.78
2019-01-31T22:55:21.565Z,97870.39
2019-01-31T22:57:50.058Z,97871.79
2019-01-31T23:00:58.519Z,97873.30
2019-01-31T23:03:27.042Z,97875.80
2019-01-31T23:05:55.455Z,97870.69
2019-01-31T23:08:23.980Z,97864.40
2019-01-31T23:10:52.427Z,97860.27
2019-01-31T23:13:40.280Z,97851.97
2019-01-31T23:21:51.274Z,97850.83
2019-01-31T23:26:53.690Z,97850.27
2019-01-31T23:29:22.178Z,97849.41
2019-01-31T23:32:09.797Z,97855.80
2019-01-31T23:37:12.098Z,97849.62
2019-01-31T23:39:40.519Z,97840.36
2019-01-31T23:42:08.971Z,97838.13
2019-01-31T23:44:37.396Z,97834.35
2019-01-31T23:47:25.182Z,97828.55
2019-01-31T23:49:53.607Z,97823.55
2019-01-31T23:52:41.549Z,97812.20
2019-01-31T23:55:49.887Z,97811.48
2019-01-31T23:58:18.337Z,97801.55
